Terminal Aerodrome Forecast
Issued by NWS Twin Cities, MN

Home | Current Version | Previous Version | Text Only | Print | Product List | Glossary On
Versions: 1 2 3 4 5 6 7 8 9 10 11 12 13 14 15 16 17 18
000
FTUS43 KMPX 271700
TAFSTC
TAF
KSTC 271727Z 2718/2818 VRB03KT P6SM SKC
     FM272100 17005KT P6SM BKN150
     FM280400 14012KT 4SM -SN SCT015 OVC035
      TEMPO 2804/2808 1SM -SN OVC020
     FM281100 14013KT 6SM -SN BKN020 OVC035
     FM281500 13006KT P6SM OVC015=

USA.gov is the U.S. government's official web portal to all federal, state and local government web resources and services.